Tiempo atmosférico en la estación meteorológica de Huercal Overa, Almería (295 m.)



Fecha
DESCASC
Temp. máxima en grados centígrados (hora)
DESCASC
Temp. mínima en grados centígrados (hora)
DESCASC
Temp. media en grados centígrados
DESCASC
Racha de viento máxima en m/sg (hora)
DESCASC
Velocidad máxima media en intervalos de 10 minutos(hora)
DESCASC
Precipitaciones diarias en mm
DESCASC
Precipitaciones de 00:00 a 06:00 en mm
DESCASC
Precipitaciones de 06:00 a 12:00 en mm
DESCASC
Precipitaciones de 12:00 a 18:00 en mm
DESCASC
Precipitaciones de 18:00 a 24:00 en mm
DESCASC

Gráficas

Temp. máximas Temp. mínimas Temp. medias Precipitaciones Rachas de viento máximas Velocidades máximas media en intervalos de 10 minutos

Datos horarios

Fecha y hora oficial Temperatura (ºC) Velocidad del viento (km/h) Dirección del viento Racha (km/h) Dirección de racha Precipitación (mm) Presión (hPa) Tendencia (hPa) Humedad (%)
2020-11-23 23:00:00 8 0 Calma 4 Noroeste 0 992 0 78
2020-11-23 22:00:00 8.6 0 Calma 4 Norte 0 992.2 0.4 74
2020-11-23 21:00:00 9.4 3 Nordeste 8 Nordeste 0 992.2 0.9 70
2020-11-23 20:00:00 10.8 3 Este 9 Sudeste 0 992 1 65
2020-11-23 19:00:00 12.4 4 Sudeste 16 Sur 0 991.8 0.6 62
2020-11-23 18:00:00 13 10 Sur 19 Sur 0 991.3 0 54
2020-11-23 17:00:00 14.7 10 Sudoeste 20 Sur 0 991 -0.9 46
2020-11-23 16:00:00 15.6 12 Sudoeste 21 Sur 0 991.2 -1 42
2020-11-23 15:00:00 16.5 9 Sudoeste 19 Sur 0 991.3 -2.1 39
2020-11-23 14:00:00 16 7 Sur 18 Sur 0 991.9 -1.5 40
2020-11-23 13:00:00 16.1 2 Sur 13 Sudoeste 0 992.2 -1.3 34
2020-11-23 12:00:00 15.5 4 Sudoeste 12 Sudoeste 0 993.4 0.1 44
2020-11-23 11:00:00 14.2 0 Calma 6 Sur 0 993.4 0.8 49
2020-11-23 10:00:00 13.5 0 Calma 4 Sudoeste 0 993.5 1.3 53
2020-11-23 09:00:00 9.2 0 Calma 4 Oeste 0 993.3 1.2 75
2020-11-23 08:00:00 6.1 0 Calma 5 Sudeste 0 992.6 0.4 83
2020-11-23 07:00:00 7.1 0 Calma -- -- 0 992.2 0 82
2020-11-23 06:00:00 7.3 0 Calma 5 Sudoeste 0 992.1 -0.1 82
2020-11-23 05:00:00 7 2 Oeste 4 Oeste 0 992.2 -- 83
2020-11-23 04:00:00 7 0 Calma 4 Oeste 0 992.2 -- 83
2020-11-23 03:00:00 6.2 0 Calma 2 Sur 0 992.2 -- 83
2020-11-23 02:00:00 6.6 0 Calma 2 Sudoeste 0 991.9 -- 83
2020-11-23 01:00:00 7.1 0 Calma 3 Oeste 0 992.4 -- 82
2020-11-23 00:00:00 7.4 0 Calma 5 Oeste 0 992.3 -- 81
2020-11-22 23:00:00 8.3 0 Calma 3 Sur 0 992.5 -- 79
2020-11-22 22:00:00 8.6 0 Calma 6 Nordeste 0 992.5 -- 78
2020-11-22 21:00:00 9.5 0 Calma 7 Nordeste 0 992.3 -- 75
2020-11-22 20:00:00 11 3 Este 6 Este 0 992 -- 72
2020-11-22 19:00:00 12.2 3 Sur 13 Sudoeste 0 991.6 -- 67
2020-11-22 18:00:00 12.9 9 Sudoeste 20 Sur 0 991.3 -- 62
2020-11-22 17:00:00 14.2 13 Sur 21 Sudoeste 0 991.2 -- 52
2020-11-22 16:00:00 15.8 11 Sudoeste 23 Sudoeste 0 991.2 -- 43
2020-11-22 15:00:00 15.9 6 Sur 17 Sudoeste 0 991.3 -- 39
2020-11-22 14:00:00 16.1 8 Sur 15 Sur 0 991.8 -- 39
2020-11-22 13:00:00 15.9 5 Sur 17 Sudoeste 0 992.5 -- 39
2020-11-22 12:00:00 16.8 2 Sudeste 10 Oeste 0 992.8 -- 39
2020-11-22 11:00:00 13.6 2 Sur 6 Sudoeste 0 993.3 -- 46
2020-11-22 10:00:00 12.2 0 Calma 3 Sudeste 0 993.7 -- 62
2020-11-22 09:00:00 6.6 0 Calma 3 Sudoeste 0 993.5 -- 83
2020-11-22 08:00:00 5.6 0 Calma -- -- 0 992.9 -- 83
2020-11-22 07:00:00 5.8 0 Calma -- -- 0 992.5 -- 83
2020-11-22 06:00:00 6.6 0 Calma -- -- 0 992.6 -- 83
2020-11-22 05:00:00 6.8 0 Calma 4 Este 0 992.5 -- 82
2020-11-22 04:00:00 6.9 0 Calma 4 Este 0 992.7 -- 81
2020-11-22 03:00:00 7.3 2 Este 4 Noroeste 0 992.9 -- 81
2020-11-22 02:00:00 8.1 2 Noroeste 6 Noroeste 0 993.1 -- 81
2020-11-22 01:00:00 8.5 0 Calma 6 Norte 0 993.6 -- 79
2020-11-22 00:00:00 8.9 2 Este 9 Nordeste 0 993.8 -- 78
2020-11-21 23:00:00 9.6 2 Este 8 Nordeste 0 994 -- 75
2020-11-21 22:00:00 10.7 0 Calma 5 Nordeste 0 993.9 -- 70
2020-11-21 21:00:00 11.6 0 Calma 9 Norte 0 993.9 -- 65
2020-11-21 20:00:00 12.1 5 Nordeste 8 Nordeste 0 993.5 -- 60
2020-11-21 19:00:00 13.3 0 Calma 8 Sur 0 992.8 -- 54
2020-11-21 18:00:00 14.6 3 Sur 8 Sudoeste 0 992.1 -- 48
2020-11-21 17:00:00 16.3 3 Sudeste 12 Sudeste 0 992 -- 44
2020-11-21 16:00:00 16.2 6 Sudeste 16 Sudeste 0 991.7 -- 43
2020-11-21 15:00:00 16.3 5 Sudeste 19 Sur 0 991.4 -- 44
2020-11-21 14:00:00 16.4 8 Sur 15 Sur 0 992 -- 41
2020-11-21 13:00:00 16.6 3 Nordeste 13 Este 0 992.5 -- 45
2020-11-21 12:00:00 15.6 6 Sudeste 15 Este 0 993.6 -- 47
2020-11-21 11:00:00 16.2 2 Norte 9 Noroeste 0 993.6 -- 50
2020-11-21 10:00:00 13.2 0 Calma 9 Nordeste 0 993.6 -- 68
2020-11-21 09:00:00 11.8 0 Calma 8 Sudeste 0 993 -- 77
2020-11-21 08:00:00 10.9 4 Nordeste 10 Nordeste 0 992.1 -- 81
2020-11-21 07:00:00 10.7 4 Nordeste 12 Este 0 991.8 -- 82
2020-11-21 06:00:00 11.8 3 Este 13 Sudeste 0 991.3 -- 80
2020-11-21 05:00:00 12.9 4 Este 9 Este 0 991.5 -- 78
2020-11-21 04:00:00 12.9 3 Este 10 Este 0 991.7 -- 79
2020-11-21 03:00:00 12.2 3 Nordeste 9 Nordeste 0 991.4 -- 79
2020-11-21 02:00:00 12.9 3 Este 8 Sudeste 0 991.4 -- 79
2020-11-21 01:00:00 13 2 Sur 12 Este 0 991.7 -- 78
2020-11-21 00:00:00 13.6 4 Este 13 Este 0 991.9 -- 78
2020-11-20 23:00:00 13.9 3 Este 14 Este 0 991.8 -- 78
2020-11-20 22:00:00 14.4 3 Este 13 Este 0 991.6 -- 78
2020-11-20 21:00:00 15 4 Este 10 Este 0 991.2 -- 78
2020-11-20 20:00:00 15.4 2 Sudeste 9 Sudeste 0 991.1 -- 72
2020-11-20 19:00:00 15.4 3 Sur 15 Sudoeste 0 990.9 -- 78
2020-11-20 18:00:00 15.5 10 Sur 20 Sur 0 990.2 -- 75
2020-11-20 17:00:00 16.8 12 Sur 22 Sudoeste 0 990 -- 62
2020-11-20 16:00:00 18 12 Sur 21 Sudoeste 0 989.5 -- 51
2020-11-20 15:00:00 19.1 11 Sur 22 Sudoeste 0 989.6 -- 47
2020-11-20 14:00:00 19.2 11 Sur 20 Sur 0 990.6 -- 45
2020-11-20 13:00:00 20.4 3 Sudeste 12 Sudeste 0 990.8 -- 35
2020-11-20 12:00:00 18.8 5 Sur 12 Sudoeste 0 991.9 -- 43
2020-11-20 11:00:00 18.2 0 Calma -- -- 0 991.7 -- 41
2020-11-20 10:00:00 13.8 0 Calma -- -- 0 991.7 -- 56
2020-11-20 09:00:00 11 0 Calma 6 Nordeste 0 992.2 -- 78
2020-11-20 08:00:00 8.2 0 Calma 5 Sudeste 0 992 -- 83
2020-11-20 07:00:00 8.1 3 Este 5 Sudeste 0 991.8 -- 82
2020-11-20 06:00:00 8.3 2 Este 6 Este 0 992 -- 82
2020-11-20 05:00:00 9.1 0 Calma 4 Sudoeste 0 992.2 -- 82
2020-11-20 04:00:00 9.5 0 Calma 4 Este 0 992.8 -- 81
2020-11-20 03:00:00 9.6 3 Este 6 Nordeste 0 993.1 -- 81
2020-11-20 02:00:00 10.4 0 Calma 5 Noroeste 0 993.4 -- 81
2020-11-20 01:00:00 10.5 0 Calma 5 Norte 0 994.3 -- 80
2020-11-20 00:00:00 11 0 Calma 6 Sudeste 0 994.4 -- 78
2020-11-19 23:00:00 11.7 0 Calma 4 Noroeste 0 994.7 -- 78
2020-11-19 22:00:00 12.7 0 Calma 4 Noroeste 0 994.8 -- 75
2020-11-19 21:00:00 13.4 0 Calma 6 Nordeste 0 994.5 -- 72
2020-11-19 20:00:00 14.7 0 Calma 5 Sudoeste 0 994.2 -- 65
2020-11-19 19:00:00 15.8 4 Sudoeste 12 Sudoeste 0 993.5 -- 58
2020-11-19 18:00:00 17 7 Sudoeste 12 Sudoeste 0 993.7 -- 52
2020-11-19 17:00:00 18.7 7 Sudoeste 14 Sudoeste 0 993.5 -- 46
2020-11-19 16:00:00 19.8 5 Sudeste 14 Sur 0 993.2 -- 43
2020-11-19 15:00:00 19.9 6 Sudeste 17 Este 0 993.2 -- 45
2020-11-19 14:00:00 19.1 5 Sudeste 15 Este 0 993.9 -- 48
2020-11-19 13:00:00 18.4 2 Sudeste 9 Sudeste 0 994.6 -- 53
2020-11-19 12:00:00 16.9 0 Calma 5 Sudoeste 0 995.6 -- 62
2020-11-19 11:00:00 15.1 0 Calma 6 Sudoeste 0 995.5 -- 72
2020-11-19 10:00:00 13.1 0 Calma 5 Sur 0 995.2 -- 82
2020-11-19 09:00:00 10.8 0 Calma 10 Sur 0 994.6 -- 83
2020-11-19 08:00:00 10.2 0 Calma 2 Noroeste 0 993.8 -- 83
2020-11-19 07:00:00 9.8 0 Calma 6 Noroeste 0 993.1 -- 83
2020-11-19 06:00:00 9.6 0 Calma 5 Nordeste 0 992.6 -- 83
2020-11-19 05:00:00 9.5 2 Este 5 Nordeste 0 992.5 -- 83
2020-11-19 04:00:00 9.7 3 Nordeste 5 Nordeste 0 992.5 -- 83
2020-11-19 03:00:00 10.4 0 Calma -- -- 0 992.5 -- 83
2020-11-19 02:00:00 10.1 0 Calma 5 Nordeste 0 992.5 -- 83
2020-11-19 01:00:00 11.8 2 Nordeste 6 Este 0 992.6 -- 83
2020-11-19 00:00:00 12.4 0 Calma 4 Nordeste 0 992.8 -- 83
2020-11-18 23:00:00 12.6 0 Calma 0 Calma 0 992.8 -- 82
2020-11-18 22:00:00 13.3 0 Calma 7 Noroeste 0 992.7 -- 82
2020-11-18 21:00:00 13.7 2 Noroeste 6 Noroeste 0 992.6 -- 81
2020-11-18 20:00:00 14.5 3 Noroeste 6 Noroeste 0 992.4 -- 79
2020-11-18 19:00:00 15.4 0 Calma 14 Sudoeste 0 991.9 -- 77
2020-11-18 18:00:00 16.5 8 Sur 16 Sudoeste 0 991.3 -- 70
2020-11-18 17:00:00 18.5 9 Sudoeste 16 Sur 0 991.1 -- 59
2020-11-18 16:00:00 19.9 8 Sudoeste 16 Sudoeste 0 990.9 -- 52
2020-11-18 15:00:00 21.4 2 Sur 9 Sudoeste 0 990.8 -- 49
2020-11-18 14:00:00 19.2 3 Este 12 Sudoeste 0 991.8 -- 60
2020-11-18 13:00:00 16.6 4 Sudoeste 10 Sudoeste 0 992.8 -- 68
2020-11-18 12:00:00 17.4 0 Calma 4 Este 0 993.7 -- 69
2020-11-18 11:00:00 16.1 0 Calma 6 Norte 0 994 -- 73
2020-11-18 10:00:00 13.5 2 Norte 7 Norte 0 993.9 -- 84
2020-11-18 09:00:00 12.8 0 Calma 5 Sudoeste 0 993.4 -- 84
2020-11-18 08:00:00 12.4 0 Calma 11 Oeste 0 992.6 -- 84
2020-11-18 07:00:00 12.6 4 Oeste 8 Oeste 0 992.2 -- 84
2020-11-18 06:00:00 13.5 0 Calma 7 Este 0 992.3 -- 83
2020-11-18 05:00:00 13.9 0 Calma 7 Nordeste 0 992.1 -- 82
2020-11-18 04:00:00 13.6 0 Calma 6 Noroeste 0 992.2 -- 82
2020-11-18 03:00:00 13.3 3 Oeste 9 Oeste 0 992.4 -- 82
2020-11-18 02:00:00 14.3 5 Noroeste 10 Noroeste 0 992.6 -- 82
2020-11-18 01:00:00 14.8 0 Calma 5 Este 0 992.8 -- 82
2020-11-18 00:00:00 14.3 0 Calma 8 Nordeste 0 992.9 -- 82
2020-11-17 23:00:00 14.6 0 Calma 4 Sudoeste 0 992.8 -- 82
2020-11-17 22:00:00 14.8 0 Calma 3 Noroeste 0 992.4 -- 82
2020-11-17 21:00:00 14.8 0 Calma 3 Sudeste 0 992.1 -- 82
2020-11-17 20:00:00 15.9 0 Calma 4 Noroeste 0 991.7 -- 82
2020-11-17 19:00:00 16.3 4 Oeste 12 Sur 0 991.3 -- 81
2020-11-17 18:00:00 17.4 5 Sudoeste 17 Sudoeste 0 990.7 -- 74
2020-11-17 17:00:00 19.1 9 Sudoeste 20 Sudoeste 0 990.4 -- 62
2020-11-17 16:00:00 19.7 11 Sur 36 Sur 0 990.2 -- 59
2020-11-17 15:00:00 19.7 13 Sur 27 Sudoeste 0 990.3 -- 62
2020-11-17 14:00:00 20.4 14 Sudoeste 22 Sudoeste 0 990.6 -- 59
2020-11-17 13:00:00 20.9 9 Sur 16 Sudoeste 0 991.4 -- 49
2020-11-17 12:00:00 20.9 4 Sur 11 Sur 0 991.7 -- 46
2020-11-17 11:00:00 20.4 2 Sudeste 6 Este 0 991.7 -- 48
2020-11-17 10:00:00 19 0 Calma 4 Este 0 991.5 -- 54
2020-11-17 09:00:00 13.4 0 Calma 4 Noroeste 0 991.7 -- 78
2020-11-17 08:00:00 11.6 0 Calma 3 Noroeste 0 991.2 -- 82
2020-11-17 07:00:00 11.7 0 Calma 4 Norte 0 990.9 -- 82
2020-11-17 06:00:00 12.2 0 Calma 4 Noroeste 0 990.7 -- 81
2020-11-17 05:00:00 12.8 0 Calma 5 Noroeste 0 990.4 -- 81
2020-11-17 04:00:00 12.6 0 Calma 7 Nordeste 0 990.6 -- 80
2020-11-17 03:00:00 13.4 0 Calma 5 Nordeste 0 990.4 -- 78
2020-11-17 02:00:00 14.4 0 Calma 7 Noroeste 0 990.4 -- 74
2020-11-17 01:00:00 15 4 Norte 10 Nordeste 0 990.6 -- 74
2020-11-17 00:00:00 15.5 4 Nordeste 12 Nordeste 0 990.7 -- 72
2020-11-16 23:00:00 16.3 3 Este 13 Este 0 990.3 -- 69
2020-11-16 22:00:00 16.8 6 Este 21 Este 0 990.2 -- 68
2020-11-16 21:00:00 17.3 10 Este 22 Este 0 989.6 -- 69
2020-11-16 20:00:00 18.3 0 Calma 7 Nordeste 0 988.5 -- 51
2020-11-16 19:00:00 19.2 3 Nordeste 8 Este 0 987.8 -- 46
2020-11-16 18:00:00 21 4 Sudoeste 17 Sudoeste 0 986.8 -- 39
2020-11-16 17:00:00 22.7 9 Sudoeste 21 Sudoeste 0 986.2 -- 36
2020-11-16 16:00:00 22.8 13 Sur 28 Sur 0 985.5 -- 36
2020-11-16 15:00:00 25.1 13 Sudoeste 29 Sudoeste 0 984.9 -- 24
2020-11-16 14:00:00 27.2 12 Oeste 26 Oeste 0 985.6 -- 22
2020-11-16 13:00:00 26.5 9 Noroeste 24 Noroeste 0 986.5 -- 23
2020-11-16 12:00:00 26.2 12 Noroeste 30 Noroeste 0 986.9 -- 25
2020-11-16 11:00:00 24.7 0 Calma 18 Oeste 0 987 -- 31
2020-11-16 10:00:00 19.7 5 Noroeste 10 Sudoeste 0 987 -- 46
2020-11-16 09:00:00 17 3 Noroeste 10 Noroeste 0 986.3 -- 54
2020-11-16 08:00:00 14.4 2 Sur 8 Nordeste 0 986.3 -- 70
2020-11-16 07:00:00 13.3 0 Calma 12 Noroeste 0 986.1 -- 76
2020-11-16 06:00:00 13.5 0 Calma 20 Noroeste 0 985.9 -- 73
2020-11-16 05:00:00 13.7 0 Calma 9 Oeste 0 986.1 -- 77
2020-11-16 04:00:00 12.8 3 Oeste 12 Noroeste 0 986.5 -- 81
2020-11-16 03:00:00 13.2 0 Calma 7 Este 0 986.6 -- 80
2020-11-16 02:00:00 13.8 0 Calma 8 Oeste 0 986.8 -- 80
2020-11-16 01:00:00 14.7 0 Calma 5 Este 0 987.2 -- 76
2020-11-16 00:00:00 14.4 0 Calma 5 Sur 0 987.6 -- 78
2020-11-15 23:00:00 15.4 0 Calma 6 Oeste 0 988 -- 76
2020-11-15 22:00:00 16.2 0 Calma 6 Sudoeste 0 988.1 -- 75
2020-11-15 21:00:00 16.6 0 Calma 5 Noroeste 0 988 -- 73
2020-11-15 20:00:00 17.1 0 Calma 8 Nordeste 0 987.9 -- 72
2020-11-15 19:00:00 17.8 4 Este 13 Nordeste 0 987.1 -- 68
2020-11-15 18:00:00 19.1 5 Este 13 Nordeste 0 986.4 -- 59
2020-11-15 17:00:00 22.2 5 Sur 14 Sudoeste 0 985.9 -- 45
2020-11-15 16:00:00 22.1 12 Sudoeste 21 Oeste 0 985.7 -- 43
2020-11-15 15:00:00 22.2 11 Sudoeste 21 Sudoeste 0 985.6 -- 46
2020-11-15 14:00:00 22.6 10 Sudoeste 19 Sudoeste 0.1 985.9 -- 34
2020-11-15 13:00:00 23.1 6 Sur 14 Sudeste 0 986.6 -- 32
2020-11-15 12:00:00 23.8 0 Calma 6 Nordeste 0 987.2 -- 33
2020-11-15 11:00:00 21.2 0 Calma 5 Sur 0 987.2 -- 43
2020-11-15 10:00:00 18.4 0 Calma 5 Este 0 987.2 -- 71
2020-11-15 09:00:00 12.2 5 Nordeste 12 Sudeste 0 988.1 -- 83
2020-11-15 08:00:00 10.8 3 Este 8 Sudoeste 0 987.4 -- 83
2020-11-15 07:00:00 11.3 0 Calma 5 Oeste 0 987 -- 83
2020-11-15 06:00:00 11.9 0 Calma 5 Nordeste 0 986.7 -- 83
2020-11-15 05:00:00 12.7 0 Calma 8 Este 0 986.5 -- 83
2020-11-15 04:00:00 13.7 2 Nordeste 5 Noroeste 0 986.9 -- 83
2020-11-15 03:00:00 14 0 Calma 5 Nordeste 0.1 986.9 -- 83
2020-11-15 02:00:00 14.6 0 Calma 6 Este 0 986.7 -- 83
2020-11-15 01:00:00 15.1 2 Este 5 Este 0 987.2 -- 83
2020-11-15 00:00:00 15.5 0 Calma -- -- 0 987.2 -- 83
2020-11-14 23:00:00 15.6 0 Calma 3 Sur 0 987.7 -- 83
2020-11-14 22:00:00 15.4 0 Calma 5 Sur 0 987.6 -- 83
2020-11-14 21:00:00 15.5 3 Sudoeste 5 Sudoeste 0 987.2 -- 83
2020-11-14 20:00:00 15.6 3 Noroeste 6 Oeste 0 986.9 -- 83
2020-11-14 19:00:00 15.8 4 Sudoeste 13 Sur 0.4 986.5 -- 82
2020-11-14 18:00:00 16.4 9 Sudoeste 16 Sudoeste 0 986 -- 80
2020-11-14 17:00:00 17 9 Sudoeste 16 Sur 0 985.6 -- 77
2020-11-14 16:00:00 17.9 9 Sur 15 Sur 0 985.6 -- 69
2020-11-14 15:00:00 19 4 Sur 15 Sudoeste 0 985.6 -- 60
2020-11-14 14:00:00 18 8 Sudoeste 14 Sudoeste 0 985.9 -- 63
2020-11-14 13:00:00 19.1 4 Sur 11 Sur 0 986.3 -- 63
2020-11-14 12:00:00 17.7 0 Calma -- -- 0 987.4 -- 68
2020-11-14 11:00:00 17.2 0 Calma -- -- 0 987.7 -- 78
2020-11-14 10:00:00 15.8 0 Calma -- -- 0 987.6 -- 83
2020-11-14 09:00:00 14.5 0 Calma -- -- 0 987.2 -- 83
2020-11-14 08:00:00 14.1 0 Calma -- -- 0 986.7 -- 83
2020-11-14 07:00:00 14 0 Calma 5 Oeste 0 986.3 -- 83
2020-11-14 06:00:00 14.1 0 Calma 5 Nordeste 0 986 -- 82
2020-11-14 05:00:00 14.2 0 Calma 3 Nordeste 0 986 -- 82
2020-11-14 04:00:00 14.2 0 Calma 6 Nordeste 0 986.3 -- 82
2020-11-14 03:00:00 14.2 0 Calma 4 Nordeste 0 986.6 -- 82
2020-11-14 02:00:00 14.4 0 Calma 7 Este 0 986.8 -- 82
2020-11-14 01:00:00 14.5 0 Calma 5 Este 0 987.1 -- 82
2020-11-14 00:00:00 14.8 0 Calma 4 Noroeste 0 987.4 -- 82
2020-11-13 23:00:00 14.9 0 Calma 5 Sudeste 0 987.1 -- 82
2020-11-13 22:00:00 15.3 2 Este 6 Nordeste 0 986.9 -- 82
2020-11-13 21:00:00 15.6 0 Calma 5 Norte 0 986.7 -- 81
2020-11-13 20:00:00 15.6 2 Nordeste 7 Nordeste 0 986.4 -- 80
2020-11-13 19:00:00 16 4 Sur 14 Sur 0 985.9 -- 80
2020-11-13 18:00:00 16.6 9 Sur 20 Sur 0 985.4 -- 75
2020-11-13 17:00:00 17.7 13 Sudoeste 24 Sudoeste 0 984.7 -- 66
2020-11-13 16:00:00 19.7 12 Sudoeste 21 Sudoeste 0 984.3 -- 50
2020-11-13 15:00:00 20 10 Sudoeste 17 Sudoeste 0 984.3 -- 43
2020-11-13 14:00:00 20.6 5 Sur 12 Sur 0 984.9 -- 41
2020-11-13 13:00:00 20.9 0 Calma 8 Sudeste 0 985.2 -- 43
2020-11-13 12:00:00 19.3 0 Calma 10 Este 0 986.3 -- 48
2020-11-13 11:00:00 21.3 0 Calma 7 Noroeste 0 986 -- 43
2020-11-13 10:00:00 18.4 0 Calma 6 Sudeste 0 985.7 -- 53
2020-11-13 09:00:00 12.7 2 Este 5 Nordeste 0 986.4 -- 81
2020-11-13 08:00:00 12.4 0 Calma -- -- 0 985.7 -- 81
2020-11-13 07:00:00 12.7 0 Calma 3 Noroeste 0 985.3 -- 81
2020-11-13 06:00:00 13 0 Calma 3 Noroeste 0 985.1 -- 81
2020-11-13 05:00:00 12.9 0 Calma 4 Noroeste 0 985 -- 80
2020-11-13 04:00:00 13.1 0 Calma 4 Oeste 0 985 -- 79
2020-11-13 03:00:00 13 0 Calma 4 Noroeste 0 985.6 -- 78
2020-11-13 02:00:00 13.2 0 Calma 8 Norte 0 985.8 -- 78
2020-11-13 01:00:00 13.4 3 Noroeste 8 Noroeste 0 986.5 -- 80
2020-11-13 00:00:00 13.1 5 Noroeste 8 Noroeste 0 986.2 -- 80
2020-11-12 23:00:00 13.5 2 Norte 10 Este 0 986.3 -- 79
2020-11-12 22:00:00 14.2 3 Este 12 Este 0 986.2 -- 79
2020-11-12 21:00:00 14.2 2 Noroeste 6 Este 0 986.1 -- 77
2020-11-12 20:00:00 15.1 0 Calma 6 Noroeste 0 986.1 -- 74
2020-11-12 19:00:00 15.6 0 Calma 5 Sudeste 0 985.8 -- 71
2020-11-12 18:00:00 16.1 2 Este 10 Este 0 985.4 -- 68
2020-11-12 17:00:00 17.5 5 Este 16 Sur 0 985.2 -- 51
2020-11-12 16:00:00 18.6 5 Sudeste 15 Este 0 985 -- 47
2020-11-12 15:00:00 18.4 7 Este 19 Este 0 985.4 -- 46
2020-11-12 14:00:00 19.3 5 Este 18 Este 0 985.8 -- 38
2020-11-12 13:00:00 19.6 4 Sudeste 19 Este 0 986.3 -- 34
2020-11-12 12:00:00 20.1 3 Este 15 Sudeste 0 987.3 -- 31
2020-11-12 11:00:00 19 0 Calma 4 Sudeste 0 987.5 -- 39
2020-11-12 10:00:00 14.4 0 Calma 3 Noroeste 0 988.1 -- 60
2020-11-12 09:00:00 9.3 0 Calma 4 Oeste 0 988.1 -- 82
2020-11-12 08:00:00 7.9 0 Calma 7 Nordeste 0 987.4 -- 83
2020-11-12 07:00:00 7.7 0 Calma 4 Este 0 987.3 -- 83
2020-11-12 06:00:00 7.7 0 Calma -- -- 0 987.5 -- 83
2020-11-12 05:00:00 8.4 0 Calma 4 Noroeste 0 987.6 -- 83
2020-11-12 04:00:00 8.9 0 Calma 4 Noroeste 0 987.9 -- 83
2020-11-12 03:00:00 9 0 Calma 5 Nordeste 0 988.4 -- 83
2020-11-12 02:00:00 9.8 0 Calma 4 Noroeste 0 988.7 -- 83
2020-11-12 01:00:00 10.5 0 Calma 3 Nordeste 0 989.4 -- 82
2020-11-12 00:00:00 11.4 0 Calma 4 Este 0 989.6 -- 82
2020-11-11 23:00:00 11.9 0 Calma 4 Noroeste 0 989.4 -- 82
2020-11-11 22:00:00 13 0 Calma -- -- 0 989.5 -- 80
2020-11-11 21:00:00 13.5 0 Calma 4 Norte 0 989.3 -- 79
2020-11-11 20:00:00 14 0 Calma 5 Nordeste 0 989 -- 78
2020-11-11 19:00:00 14.8 0 Calma 12 Sur 0 988.9 -- 72
2020-11-11 18:00:00 15.9 7 Sur 17 Sudoeste 0 988.3 -- 62
2020-11-11 17:00:00 17.4 11 Sudoeste 18 Sur 0 987.9 -- 53
2020-11-11 16:00:00 18.9 3 Sudeste 13 Este 0 987.6 -- 46
2020-11-11 15:00:00 17.7 4 Este 14 Este 0 987.7 -- 52
2020-11-11 14:00:00 17.3 6 Este 13 Sudeste 0 988.4 -- 54
2020-11-11 13:00:00 17.9 5 Sudeste 13 Este 0 989.8 -- 51
2020-11-11 12:00:00 18 5 Sudeste 14 Sudeste 0 990.2 -- 52
2020-11-11 11:00:00 18.3 0 Calma 8 Este 0 990.5 -- 49
2020-11-11 10:00:00 17.7 0 Calma 4 Sudoeste 0 990.2 -- 52
2020-11-11 09:00:00 12.7 0 Calma 4 Norte 0 991.2 -- 79
2020-11-11 08:00:00 10 0 Calma 4 Nordeste 0 990.7 -- 83
2020-11-11 07:00:00 10 0 Calma 7 Noroeste 0 990.7 -- 83
2020-11-11 06:00:00 10.3 0 Calma 3 Este 0 990.9 -- 83
2020-11-11 05:00:00 10.4 0 Calma 3 Noroeste 0 991.1 -- 83
2020-11-11 04:00:00 11.3 0 Calma 5 Nordeste 0 990.9 -- 82
2020-11-11 03:00:00 11.9 2 Norte 5 Noroeste 0 991 -- 82
2020-11-11 02:00:00 12.4 3 Norte 8 Nordeste 0 991.7 -- 82
2020-11-11 01:00:00 13.1 2 Nordeste 5 Sudeste 0 991.9 -- 81
2020-11-11 00:00:00 13.9 0 Calma 5 Este 0 991.6 -- 81
2020-11-10 23:00:00 14.7 0 Calma 4 Oeste 0 992 -- 80
2020-11-10 22:00:00 15.1 0 Calma 6 Nordeste 0 991.9 -- 78
2020-11-10 21:00:00 14.9 0 Calma 6 Noroeste 0 991.5 -- 76
2020-11-10 20:00:00 15.2 0 Calma 6 Sudoeste 0 991.1 -- 77
2020-11-10 19:00:00 15.6 3 Oeste 8 Sudoeste 0 990.7 -- 71
2020-11-10 18:00:00 16.8 3 Sudeste 13 Este 0 990 -- 61
2020-11-10 17:00:00 18.4 7 Sur 17 Sudoeste 0 989.2 -- 57
2020-11-10 16:00:00 18.9 12 Sudoeste 28 Sur 0 988.8 -- 58
2020-11-10 15:00:00 19.3 14 Sudoeste 26 Sur 0 988.2 -- 50
2020-11-10 14:00:00 19.7 15 Sur 26 Oeste 0 988.7 -- 43
2020-11-10 13:00:00 21.9 6 Sudeste 16 Este 0 989 -- 31
2020-11-10 12:00:00 22.4 3 Sudeste 9 Sudeste 0 989.6 -- 33
2020-11-10 11:00:00 19.6 3 Sur 6 Sur 0 989.8 -- 43
2020-11-10 10:00:00 17.8 0 Calma 4 Sudeste 0 989.7 -- 53
2020-11-10 09:00:00 13.6 0 Calma 3 Nordeste 0 989.9 -- 73
2020-11-10 08:00:00 10.7 0 Calma 5 Nordeste 0 989.6 -- 82
2020-11-10 07:00:00 10.6 0 Calma -- -- 0 989.1 -- 82
2020-11-10 06:00:00 10.4 0 Calma 3 Sudeste 0 988.7 -- 83
2020-11-10 05:00:00 10.4 0 Calma 6 Nordeste 0 988.3 -- 83
2020-11-10 04:00:00 10.4 0 Calma 4 Este 0 988.4 -- 83
2020-11-10 03:00:00 11.4 0 Calma 3 Sudoeste 0 988.4 -- 83
2020-11-10 02:00:00 11.8 0 Calma 6 Nordeste 0 988.4 -- 83
2020-11-10 01:00:00 12 0 Calma 5 Sudoeste 0 988.6 -- 81
2020-11-10 00:00:00 12.8 2 Sur 5 Sudeste 0 988.7 -- 82
2020-11-09 23:00:00 13.1 0 Calma 4 Sudeste 0 988.8 -- 81
2020-11-09 22:00:00 13.6 2 Sur 5 Sur 0 988.6 -- 81
2020-11-09 21:00:00 14 2 Oeste 5 Oeste 0 988.4 -- 82
2020-11-09 20:00:00 14.8 0 Calma 6 Norte 0 988.1 -- 81
2020-11-09 19:00:00 15.1 0 Calma 8 Sudoeste 0 987.7 -- 80
2020-11-09 18:00:00 16.1 6 Sudoeste 14 Sudoeste 0 987.2 -- 77
2020-11-09 17:00:00 18 10 Sudoeste 21 Sudoeste 0 986.6 -- 66
2020-11-09 16:00:00 19.3 12 Sudoeste 19 Sudoeste 0 986.4 -- 53
2020-11-09 15:00:00 19.6 13 Sudoeste 23 Sudoeste 0 986.1 -- 53
2020-11-09 14:00:00 20 13 Sur 22 Sudoeste 0 986.3 -- 50
2020-11-09 13:00:00 19.7 10 Sur 18 Oeste 0 987.1 -- 39
2020-11-09 12:00:00 21.1 4 Sur 9 Sur 0 987.4 -- 34
2020-11-09 11:00:00 18 3 Sur 7 Sudoeste 0 987.9 -- 47
2020-11-09 10:00:00 14.8 2 Este 5 Este 0 987.2 -- 63
2020-11-09 09:00:00 11.4 0 Calma 6 Sudeste 0 987.4 -- 82
2020-11-09 08:00:00 -- 0 Calma -- -- 0 -- -- --
2020-11-09 07:00:00 10 0 Calma 5 Nordeste 0 986.7 -- 82
2020-11-09 06:00:00 10.2 0 Calma 5 Sudoeste 0 986.6 -- 82
2020-11-09 05:00:00 10.1 0 Calma -- -- 0 986.5 -- 82
2020-11-09 04:00:00 10.1 0 Calma 0 Calma 0 986.6 -- 82
2020-11-09 03:00:00 10.6 0 Calma -- -- 0 987 -- 82
2020-11-09 02:00:00 11.3 0 Calma -- -- 0 987.2 -- 82
2020-11-09 01:00:00 11.5 0 Calma -- -- 0 987.5 -- 82
2020-11-09 00:00:00 12.4 0 Calma -- -- 0 987.5 -- 82
2020-11-08 23:00:00 12.7 0 Calma 0 Calma 0 987.5 -- 82
2020-11-08 22:00:00 13.1 0 Calma 4 Nordeste 0 987.6 -- 82
2020-11-08 21:00:00 14.3 0 Calma 4 Noroeste 0 987.5 -- 82
2020-11-08 20:00:00 15 0 Calma 4 Sudoeste 0 987.4 -- 82
2020-11-08 19:00:00 15.7 4 Sudoeste 11 Sudoeste 0 987.1 -- 81
2020-11-08 18:00:00 16.4 7 Sur 17 Sudoeste 0 986.6 -- 78
2020-11-08 17:00:00 17.6 9 Sudoeste 18 Sudoeste 0 986.2 -- 70
2020-11-08 16:00:00 19 12 Sudoeste 20 Sudoeste 0 986 -- 56
2020-11-08 15:00:00 20.7 10 Sur 16 Sur 0 986.5 -- 42
2020-11-08 14:00:00 21.3 7 Este 18 Este 0 986.5 -- 33
2020-11-08 13:00:00 20.5 5 Este 13 Este 0 987.2 -- 33
2020-11-08 12:00:00 20.1 5 Este 14 Este 0 988.5 -- 33
2020-11-08 11:00:00 19.7 0 Calma 5 Sudoeste 0 988.4 -- 40
2020-11-08 10:00:00 13 0 Calma -- -- 0 989.4 -- 67
2020-11-08 09:00:00 11.6 0 Calma 6 Sudoeste 0 989 -- 75
2020-11-08 08:00:00 9.2 0 Calma 5 Nordeste 0 988.3 -- 80
2020-11-08 07:00:00 8.9 2 Nordeste 4 Nordeste 0 988.2 -- 79
2020-11-08 06:00:00 9.4 0 Calma 6 Nordeste 0 988.2 -- 78
2020-11-08 05:00:00 9.8 0 Calma -- -- 0 988.3 -- 78
2020-11-08 04:00:00 10.3 0 Calma 3 Norte 0 988.5 -- 76
2020-11-08 03:00:00 10.6 0 Calma 4 Norte 0 988.8 -- 74
2020-11-08 02:00:00 11.1 2 Este 4 Sudeste 0 989 -- 74
2020-11-08 01:00:00 11.8 0 Calma 5 Noroeste 0 989 -- 72
2020-11-08 00:00:00 12.6 0 Calma 3 Este 0 989.1 -- 65
2020-11-07 23:00:00 13.6 0 Calma 4 Noroeste 0 988.8 -- 62
2020-11-07 22:00:00 14.6 4 Este 8 Sudeste 0 988.6 -- 56
2020-11-07 21:00:00 16.4 3 Oeste 9 Sudoeste 0 987.9 -- 45
2020-11-07 20:00:00 19 6 Norte 11 Norte 0 987.7 -- 35
2020-11-07 19:00:00 19.1 3 Oeste 15 Noroeste 0 987.1 -- 34
2020-11-07 18:00:00 20.7 9 Noroeste 25 Norte 0 986 -- 29
2020-11-07 17:00:00 23.2 11 Noroeste 23 Norte 0 985.1 -- 26
2020-11-07 16:00:00 24.6 5 Sur 24 Sur 0 984.4 -- 29
2020-11-07 15:00:00 24.9 2 Norte 13 Nordeste 0 983.4 -- 25
2020-11-07 14:00:00 24.5 7 Sudoeste 22 Oeste 0 983.7 -- 27
2020-11-07 13:00:00 22.9 8 Oeste 32 Sudoeste 0 983.7 -- 28
2020-11-07 12:00:00 21.9 17 Oeste 28 Oeste 0 984.2 -- 34
2020-11-07 11:00:00 20.2 12 Sudoeste 24 Oeste 0 984.8 -- 43
2020-11-07 10:00:00 17.7 4 Sudoeste 13 Norte 0 984 -- 60
2020-11-07 09:00:00 15.2 2 Nordeste 8 Sur 0 983.5 -- 74
2020-11-07 08:00:00 13.8 4 Nordeste 15 Norte 0 983.1 -- 79
2020-11-07 07:00:00 13.3 0 Calma 8 Oeste 0 982.2 -- 83
2020-11-07 06:00:00 13.4 0 Calma 9 Este 0.1 981.3 -- 82
2020-11-07 05:00:00 13.7 0 Calma 40 Noroeste 0.9 981.5 -- 81
2020-11-07 04:00:00 15.4 25 Noroeste 59 Oeste 0 981.2 -- 62
2020-11-07 03:00:00 18 10 Noroeste 18 Noroeste 0 980.7 -- 56
2020-11-07 02:00:00 17.6 3 Sudoeste 9 Noroeste 0 979.9 -- 61
2020-11-07 01:00:00 17.3 4 Noroeste 12 Este 0 979.2 -- 63
2020-11-07 00:00:00 18.9 5 Este 15 Este 0 979.1 -- 53
2020-11-06 23:00:00 19.3 5 Este 17 Este 0 979.4 -- 51
2020-11-06 22:00:00 19.9 6 Este 22 Este 0 979.5 -- 48
2020-11-06 21:00:00 19.8 8 Este 28 Este 0 979.3 -- 50
2020-11-06 20:00:00 19.4 8 Este 30 Este 0 980.1 -- 58
2020-11-06 19:00:00 19.6 9 Este 30 Nordeste 0 979.9 -- 60
2020-11-06 18:00:00 20.5 8 Nordeste 37 Nordeste 0 979.8 -- 48
2020-11-06 17:00:00 21.6 10 Este 31 Nordeste 0 980 -- 46
2020-11-06 16:00:00 23.2 8 Este 26 Nordeste 0 980.3 -- 47
2020-11-06 15:00:00 22.1 11 Nordeste 30 Nordeste 0 980.8 -- 53
2020-11-06 14:00:00 23.1 10 Este 30 Nordeste 0 981.1 -- 49
2020-11-06 13:00:00 22.4 10 Este 29 Nordeste 0 982.1 -- 51
2020-11-06 12:00:00 21.1 10 Este 28 Nordeste 0 983.4 -- 56
2020-11-06 11:00:00 20.5 9 Nordeste 26 Nordeste 0 983.6 0.1 57
2020-11-06 10:00:00 19.2 6 Nordeste 23 Este 0 984.4 -- 66
2020-11-06 09:00:00 17.3 5 Este 17 Sur 0 984 -- 70
2020-11-06 08:00:00 17.1 8 Este 24 Nordeste 0 983.5 -- 69
2020-11-06 07:00:00 16.4 4 Nordeste 15 Este 0 983.2 -- 71
2020-11-06 06:00:00 14.8 5 Norte 10 Norte 0 983.1 -- 74
2020-11-06 05:00:00 15.5 0 Calma 9 Noroeste 0 983.1 -- 69
2020-11-06 04:00:00 15 5 Norte 10 Noroeste 0 983.2 -- 70
2020-11-06 03:00:00 14.8 3 Noroeste 11 Noroeste 0 983.5 -- 71
2020-11-06 02:00:00 14.9 5 Noroeste 11 Norte 0 983.3 -- 73
2020-11-06 01:00:00 14.2 4 Noroeste 6 Noroeste 0 983.4 -- 78
2020-11-06 00:00:00 14.9 4 Noroeste 11 Noroeste 0 983.7 -- 74
2020-11-05 23:00:00 15 6 Norte 10 Oeste 0 984 -- 75
2020-11-05 22:00:00 15.6 4 Norte 9 Norte 0 984 -- 73
2020-11-05 21:00:00 15.7 4 Noroeste 10 Norte 0 983.9 -- 77
2020-11-05 20:00:00 16.5 0 Calma 19 Este 0 983.8 -- 78
2020-11-05 19:00:00 17 4 Este 16 Nordeste 0 983.3 -- 75
2020-11-05 18:00:00 17.3 7 Nordeste 16 Nordeste 0.1 982.3 -- 69
2020-11-05 17:00:00 17.8 5 Este 17 Este 0 982.1 -- 66
2020-11-05 16:00:00 17.6 6 Este 17 Sudeste 0.2 982.1 -- 71
2020-11-05 15:00:00 17 6 Nordeste 19 Este 0.3 982 -- 78
2020-11-05 14:00:00 16.9 7 Sudeste 36 Sudeste 0.3 982.5 -- 78
2020-11-05 13:00:00 18.3 14 Este 34 Este 0 983.2 -- 68
2020-11-05 12:00:00 18.1 3 Este 24 Este 0 983.8 -- 75
2020-11-05 11:00:00 17.9 8 Sudeste 21 Sudeste 0 984.8 -- 75
2020-11-05 10:00:00 16.9 9 Este 39 Este 0 983.8 -- 80
2020-11-05 09:00:00 16.3 10 Este 34 Nordeste 0.1 983.3 -- 82
2020-11-05 08:00:00 16.1 12 Este 32 Este 0 982.7 -- 81
2020-11-05 07:00:00 15.6 7 Nordeste 26 Nordeste 1 982.4 -- 83
2020-11-05 06:00:00 15.6 9 Este 26 Este 2.1 982.5 -- 83
2020-11-05 05:00:00 15.4 9 Este 30 Este 1.3 981.3 -- 83
2020-11-05 04:00:00 15.5 4 Este 24 Nordeste 0.1 982 -- 82
2020-11-05 03:00:00 15.6 10 Este 33 Nordeste 0 981.9 -- 76
2020-11-05 02:00:00 15.7 13 Este 36 Este 0 981.5 -- 75
2020-11-05 01:00:00 15.5 12 Este 29 Nordeste 0 982 -- 71
2020-11-05 00:00:00 15.6 6 Este 23 Este 0 982.9 -- 69
2020-11-04 23:00:00 15.7 7 Este 19 Este 0 983 -- 68
2020-11-04 22:00:00 16 7 Este 24 Sudeste 0 982.8 -- 69
2020-11-04 21:00:00 15.8 9 Este 27 Sudeste 0 982 -- 77
2020-11-04 20:00:00 16.1 5 Este 24 Sudeste 0 981.8 -- 77
2020-11-04 19:00:00 16 14 Este 28 Este 0.1 980.6 -- 80
2020-11-04 18:00:00 16.9 8 Sudeste 23 Sudeste 0 980.7 -- 70
2020-11-04 17:00:00 17.2 11 Sudeste 27 Sudeste 0 980.7 -- 67
2020-11-04 16:00:00 18.3 10 Sudeste 26 Sudeste 0 980.7 -- 53
2020-11-04 15:00:00 19.6 7 Sudeste 22 Este 0 980.4 -- 45
2020-11-04 14:00:00 19.2 7 Sudeste 21 Este 0 981.4 -- 47
2020-11-04 13:00:00 18.6 8 Sudeste 23 Este 0 982.3 -- 48
2020-11-04 12:00:00 19.3 11 Este 22 Este 0 982.9 -- 46
2020-11-04 11:00:00 19.6 5 Este 14 Este 0 983.4 -1.1 51
2020-11-04 10:00:00 18.2 0 Calma 6 Nordeste 0 984 -- 59
2020-11-04 09:00:00 14.2 0 Calma 3 Noroeste 0 984.7 -- 81
2020-11-04 08:00:00 13 0 Calma -- -- 0 984.5 -- 83
2020-11-04 07:00:00 12.5 0 Calma 5 Norte 0 984.6 -- 83
2020-11-04 06:00:00 12.5 2 Noroeste 7 Noroeste 0 985 -- 83
2020-11-04 05:00:00 11.8 0 Calma 6 Noroeste 0 985.5 -- 83
2020-11-04 04:00:00 12.2 2 Noroeste 7 Noroeste 0 985.9 -- 83
2020-11-04 03:00:00 13.1 0 Calma 5 Nordeste 0 987 -- 83
2020-11-04 02:00:00 13.6 0 Calma 5 Nordeste 0 987.6 -- 82
2020-11-04 01:00:00 14.4 0 Calma 6 Norte 0 988.4 -- 81
2020-11-04 00:00:00 14.8 4 Noroeste 5 Noroeste 0 989.1 -- 81
2020-11-03 23:00:00 14.9 0 Calma 5 Oeste 0 989.3 -- 80
2020-11-03 22:00:00 15.5 0 Calma 8 Oeste 0 989.3 -- 78
2020-11-03 21:00:00 15.5 0 Calma 6 Sudeste 0 989 -- 80
2020-11-03 20:00:00 15.6 0 Calma 6 Sur 0 988.5 -- 81
2020-11-03 19:00:00 15.3 4 Sudoeste 12 Sudoeste 0 988.2 -- 81
2020-11-03 18:00:00 16.3 7 Sudoeste 15 Sudoeste 0 987.4 -- 75
2020-11-03 17:00:00 17.6 10 Sudoeste 18 Sudoeste 0 987.1 -- 66
2020-11-03 16:00:00 18.5 11 Sudoeste 22 Sudoeste 0 986.9 -- 64
2020-11-03 15:00:00 18.9 13 Sur 24 Sudoeste 0 987 -- 64
2020-11-03 14:00:00 19.8 13 Sudoeste 23 Sudoeste 0 987 -- 56
2020-11-03 13:00:00 20.6 12 Sudoeste 21 Sudoeste 0 987.7 -- 50
2020-11-03 12:00:00 20.9 10 Sudoeste 16 Sur 0 988.2 -- 37
2020-11-03 11:00:00 22 3 Este 12 Este 0 987.8 -- 30
2020-11-03 10:00:00 17.1 4 Sur 6 Sur 0 987.6 -- 38
2020-11-03 09:00:00 14.7 0 Calma 4 Este 0 987.6 -- 49
2020-11-03 08:00:00 10.6 0 Calma 6 Nordeste 0 987.4 -- 65
2020-11-03 07:00:00 9.7 4 Nordeste 6 Nordeste 0 987 -- 70
2020-11-03 06:00:00 10 0 Calma 2 Este 0 987 -- 69
2020-11-03 05:00:00 10.4 0 Calma 3 Nordeste 0 986.9 -- 69
2020-11-03 04:00:00 10.6 0 Calma 4 Nordeste 0 986.9 -- 71
2020-11-03 03:00:00 11 0 Calma 5 Este 0 987.1 -- 72
2020-11-03 02:00:00 11.8 0 Calma -- -- 0 987 -- 72
2020-11-03 01:00:00 12.3 0 Calma 4 Este 0 987.3 -- 77
2020-11-03 00:00:00 12.8 0 Calma 5 Este 0 987.5 -- 76
2020-11-02 23:00:00 13.3 2 Este 4 Este 0 987.4 -- 76
2020-11-02 22:00:00 14.4 0 Calma 3 Sudoeste 0 987.7 -- 78
2020-11-02 21:00:00 14.9 0 Calma 6 Noroeste 0 987.6 -- 75
2020-11-02 20:00:00 16.1 0 Calma 5 Norte 0 987.5 -- 71
2020-11-02 19:00:00 17.3 0 Calma 7 Sudoeste 0 986.8 -- 69
2020-11-02 18:00:00 19.3 4 Sudoeste 11 Sur 0 986.3 -- 53
2020-11-02 17:00:00 20.9 7 Sur 20 Sudoeste 0 986 -- 44
2020-11-02 16:00:00 21 14 Sudoeste 24 Sudoeste 0 986 -- 46
2020-11-02 15:00:00 22.6 13 Sudoeste 23 Sudoeste 0 985.5 -- 37
2020-11-02 14:00:00 22.5 12 Sur 21 Sur 0 986.3 -- 34
2020-11-02 13:00:00 23.2 8 Sur 15 Sudoeste 0 987 -- 29
2020-11-02 12:00:00 24.2 4 Sudoeste 10 Sur 0 987.5 -- 27
2020-11-02 11:00:00 23.1 2 Sur 5 Sur 0 987.8 -- 30
2020-11-02 10:00:00 19.1 0 Calma 3 Este 0 987.6 -- 40
2020-11-02 09:00:00 15.2 0 Calma 0 Calma 0 987.9 -- 50
2020-11-02 08:00:00 11 0 Calma 4 Sudoeste 0 987.7 -- 66
2020-11-02 07:00:00 10.5 2 Nordeste 5 Nordeste 0 987.6 -- 67
2020-11-02 06:00:00 10.6 0 Calma 5 Este 0 987.6 -- 67
2020-11-02 05:00:00 10.8 2 Este 5 Este 0 987.4 -- 66
2020-11-02 04:00:00 11.2 0 Calma 4 Este 0 987.2 -- 64
2020-11-02 03:00:00 11.7 0 Calma 5 Este 0 987.6 -- 62
2020-11-02 02:00:00 12.4 2 Este 5 Este 0 987.7 -- 62
2020-11-02 01:00:00 12.9 4 Este 6 Nordeste 0 988.1 -- 58
2020-11-02 00:00:00 14.6 0 Calma 4 Noroeste 0 988.4 -- 56
2020-11-01 23:00:00 15.7 0 Calma 3 Oeste 0 988.5 -- 53
2020-11-01 22:00:00 16.2 0 Calma 4 Sur 0 988.5 -- 53
2020-11-01 21:00:00 16.5 0 Calma -- -- 0 988.3 -- 55
2020-11-01 20:00:00 18.2 0 Calma 4 Sudeste 0 988.3 -- 53
2020-11-01 19:00:00 19.5 0 Calma 5 Oeste 0 987.9 -- 50
2020-11-01 18:00:00 21.7 5 Oeste 17 Sudoeste 0 987.5 -- 30
2020-11-01 17:00:00 23.4 11 Sudoeste 22 Sur 0 987.2 -- 28
2020-11-01 16:00:00 23.2 15 Sur 27 Sudoeste 0 987.5 -- 28
2020-11-01 15:00:00 24.2 14 Sudoeste 26 Sudoeste 0 987.3 -- 27
2020-11-01 14:00:00 23.6 15 Sur 23 Sur 0 987.8 -- 25
2020-11-01 13:00:00 24.4 10 Sudoeste 18 Sudoeste 0 988.4 -- 24
2020-11-01 12:00:00 25.2 5 Sur 11 Sudeste 0 989 -- 24
2020-11-01 11:00:00 24.2 0 Calma 4 Sudeste 0 989.2 -- 24
2020-11-01 10:00:00 20.4 0 Calma 5 Este 0 988.9 -- 35
2020-11-01 09:00:00 16.8 0 Calma 6 Nordeste 0 989 -- 46
2020-11-01 08:00:00 11 3 Norte 6 Norte 0 988.9 -- 67
2020-11-01 07:00:00 10.4 3 Este 6 Este 0 988.8 -- 70
2020-11-01 06:00:00 10.6 0 Calma 5 Este 0 988.7 -- 68
2020-11-01 05:00:00 11.2 2 Este 5 Nordeste 0 988.6 -- 69
2020-11-01 04:00:00 11.4 0 Calma 6 Nordeste 0 988.8 -- 70
2020-11-01 03:00:00 11.2 5 Nordeste 10 Nordeste 0 989 -- 71
2020-11-01 02:00:00 12.7 2 Noroeste 4 Noroeste 0 989 -- 65
2020-11-01 01:00:00 12.6 2 Este 6 Este 0 989.7 -- 69
2020-11-01 00:00:00 13.2 2 Nordeste 6 Noroeste 0 989.8 -- 72
2020-10-31 23:00:00 13.6 3 Este 9 Nordeste 0 989.7 -- 73
2020-10-31 22:00:00 14 0 Calma 6 Este 0 989.4 -- 75
2020-10-31 21:00:00 15.5 0 Calma 5 Noroeste 0 989.4 -- 72
2020-10-31 20:00:00 16.3 0 Calma 4 Sur 0 989.1 -- 72
2020-10-31 19:00:00 17.7 0 Calma 6 Sudoeste 0 988.9 -- 65
2020-10-31 18:00:00 19.2 5 Sudoeste 8 Sudoeste 0 988.6 -- 53
2020-10-31 17:00:00 20.7 5 Sur 10 Sur 0 988.6 -- 49
2020-10-31 16:00:00 21.2 4 Sudeste 19 Sur 0 988.3 -- 40
2020-10-31 15:00:00 21 11 Sur 20 Sudoeste 0 988.1 -- 37
2020-10-31 14:00:00 21.5 12 Sudoeste 21 Sudoeste 0 988.6 -- 31
2020-10-31 13:00:00 22.3 11 Sudoeste 17 Sudoeste 0 989.1 -- 26
2020-10-31 12:00:00 22.5 0 Calma 4 Sudeste 0 989.7 -- 27
2020-10-31 11:00:00 21.9 0 Calma 3 Sudeste 0 990.2 -- 29
2020-10-31 10:00:00 20.2 0 Calma 6 Este 0 989.6 -- 35
2020-10-31 09:00:00 13.4 0 Calma 6 Nordeste 0 990.3 -- 54
2020-10-31 08:00:00 10 2 Este 6 Nordeste 0 990.1 -- 66
2020-10-31 07:00:00 9.7 0 Calma -- -- 0 989.9 -- 68
2020-10-31 06:00:00 10.1 0 Calma -- -- 0 989.9 -- 66
2020-10-31 05:00:00 9.9 0 Calma -- -- 0 989.6 -- 65
2020-10-31 04:00:00 10.8 0 Calma -- -- 0 990 -- 63
2020-10-31 03:00:00 10.3 0 Calma -- -- 0 990.1 -- 63
2020-10-31 02:00:00 11.1 0 Calma 4 Este 0 990.3 -- 60
2020-10-31 01:00:00 11.8 0 Calma 3 Este 0 990.5 -- 56
2020-10-31 00:00:00 12.3 2 Este 6 Este 0 990.7 -- 53
2020-10-30 23:00:00 13.6 0 Calma 5 Nordeste 0 991 -- 47
2020-10-30 22:00:00 14.2 0 Calma 4 Sudoeste 0 990.7 -- 46
2020-10-30 21:00:00 15.1 0 Calma 6 Noroeste 0 990.5 -- 43
2020-10-30 20:00:00 16.7 0 Calma 5 Noroeste 0 990.2 -- 40
2020-10-30 19:00:00 17.6 5 Sudoeste 12 Sudoeste 0 989.8 -- 36
2020-10-30 18:00:00 19.4 6 Sudoeste 15 Sudoeste 0 989.3 -- 28
2020-10-30 17:00:00 21.8 8 Sudoeste 20 Sudoeste 0 988.7 -- 24
2020-10-30 16:00:00 23 10 Sur 21 Sudoeste 0 988.8 -- 24
2020-10-30 15:00:00 23.1 12 Sudoeste 21 Sur 0 988.5 -- 24
2020-10-30 14:00:00 23.7 13 Sur 20 Sur 0 989.2 -- 24
2020-10-30 13:00:00 26.2 3 Sudeste 18 Este 0 989.7 -- 24
2020-10-30 12:00:00 23.8 4 Este 11 Este 0 991 -- 27
2020-10-30 11:00:00 23.1 2 Sudeste 5 Este 0 990.9 -- 30
2020-10-30 10:00:00 19.9 0 Calma 3 Sur 0 991 -- 37
2020-10-30 09:00:00 16.2 0 Calma 2 Sudeste 0 991 -- 52
2020-10-30 08:00:00 10.8 0 Calma 4 Este 0 990.7 -- 80
2020-10-30 07:00:00 9.7 0 Calma 6 Este 0 990.8 -- 81
2020-10-30 06:00:00 10 2 Este 4 Este 0 990.8 -- 81
2020-10-30 05:00:00 10.5 0 Calma 5 Nordeste 0 990.8 -- 81
2020-10-30 04:00:00 10.8 0 Calma 3 Este 0 991.1 -- 79
2020-10-30 03:00:00 11.1 0 Calma -- -- 0 991 -- 78
2020-10-30 02:00:00 11.6 0 Calma 0 Calma 0 991.3 -- 78
2020-10-30 01:00:00 12.2 0 Calma 4 Nordeste 0 991.4 -- 78
2020-10-30 00:00:00 12.7 0 Calma 4 Este 0 991.7 -- 74
2020-10-29 23:00:00 13.4 0 Calma 6 Este 0 991.8 -- 72
2020-10-29 22:00:00 14 0 Calma -- -- 0 991.7 -- 72
2020-10-29 21:00:00 15.1 0 Calma -- -- 0 991.4 -- 67
2020-10-29 20:00:00 16 0 Calma 6 Sur 0 991.1 -- 65
2020-10-29 19:00:00 17.5 4 Sudoeste 9 Sudoeste 0 990.6 -- 64
2020-10-29 18:00:00 19.1 4 Sur 17 Sur 0 989.8 -- 53
2020-10-29 17:00:00 20 11 Sur 22 Sudoeste 0 989.5 -- 49
2020-10-29 16:00:00 21.2 11 Sudoeste 25 Sudoeste 0 989.6 -- 49
2020-10-29 15:00:00 21.1 13 Sudoeste 23 Sur 0 989.2 -- 49
2020-10-29 14:00:00 21.1 14 Sur 22 Sudoeste 0 990 -- 45
2020-10-29 13:00:00 22.7 10 Sudoeste 17 Sudoeste 0 990.6 -- 33
2020-10-29 12:00:00 23.2 6 Este 13 Este 0 991.3 -- 33
2020-10-29 11:00:00 21.4 4 Sudoeste 8 Sudoeste 0 991.4 -- 36
2020-10-29 10:00:00 21.9 0 Calma 3 Este 0 990.6 -- 37
2020-10-29 09:00:00 16.3 0 Calma 5 Oeste 0 990.4 -- 52
2020-10-29 08:00:00 11.3 0 Calma 7 Nordeste 0 990.3 -- 68
2020-10-29 07:00:00 10 4 Este 6 Este 0 990 -- 68
2020-10-29 06:00:00 10.4 0 Calma 5 Este 0 989.6 -- 66
2020-10-29 05:00:00 10.9 0 Calma 5 Este 0 989.1 -- 62
2020-10-29 04:00:00 11.2 3 Este 7 Nordeste 0 988.6 -- 59
2020-10-29 03:00:00 11.7 0 Calma 6 Nordeste 0 988.7 -- 56
2020-10-29 02:00:00 11.7 0 Calma -- -- 0 988.7 -- 55
2020-10-29 01:00:00 12.3 0 Calma 4 Nordeste 0 988.8 -- 53
2020-10-29 00:00:00 12.5 0 Calma 6 Nordeste 0 988.9 -- 52
2020-10-28 23:00:00 13.5 0 Calma 5 Noroeste 0 988.9 -- 48
2020-10-28 22:00:00 13.9 0 Calma 5 Este 0 988.7 -- 46
2020-10-28 21:00:00 15 0 Calma 6 Noroeste 0 988.1 -- 40
2020-10-28 20:00:00 15.9 0 Calma 8 Nordeste 0 987.6 -- 37
2020-10-28 19:00:00 17.2 0 Calma 6 Nordeste 0 987 -- 34
2020-10-28 18:00:00 18.7 4 Oeste 14 Sudoeste 0 986.2 -- 31
2020-10-28 17:00:00 20.4 8 Sudoeste 19 Sudoeste 0 985.6 -- 29
2020-10-28 16:00:00 21 12 Sur 21 Sur 0 985.5 -- 27
2020-10-28 15:00:00 20.8 12 Sur 22 Sudoeste 0 985.2 -- 27
2020-10-28 14:00:00 21.6 8 Sudoeste 17 Sur 0 985.4 -- 21
2020-10-28 13:00:00 24.9 2 Nordeste 10 Sudeste 0 985.8 -- 17
2020-10-28 12:00:00 24 2 Oeste 8 Sur 0 986.3 -- 18
2020-10-28 11:00:00 21.3 0 Calma 8 Sur 0 986.7 -- 23
2020-10-28 10:00:00 17.5 0 Calma 5 Este 0 986.3 -- 30
2020-10-28 09:00:00 14.3 0 Calma 0 Calma 0 986.8 -- 41
2020-10-28 08:00:00 9.4 0 Calma 3 Noroeste 0 985.5 -- 52
2020-10-28 07:00:00 8.6 0 Calma 5 Nordeste 0 985.2 -- 53
2020-10-28 06:00:00 8.1 4 Nordeste 5 Nordeste 0 984.6 -- 63
2020-10-28 05:00:00 8.7 0 Calma 8 Nordeste 0 984.3 -- 63
2020-10-28 04:00:00 8.2 0 Calma 9 Nordeste 0 984 -- 68
2020-10-28 03:00:00 9.1 3 Este 6 Nordeste 0 984.2 -- 63
2020-10-28 02:00:00 9.7 0 Calma 4 Nordeste 0 984.5 -- 53
2020-10-28 01:00:00 9.8 0 Calma 6 Sur 0 984.8 -- 76
2020-10-28 00:00:00 10.4 0 Calma 5 Sudoeste 0 984.9 -- 76
2020-10-27 23:00:00 11.3 0 Calma 4 Noroeste 0 985.2 -- 72
2020-10-27 22:00:00 11.6 0 Calma 6 Oeste 0 984.9 -- 74
2020-10-27 21:00:00 12.6 0 Calma 5 Nordeste 0 984.5 -- 72
2020-10-27 20:00:00 13.5 3 Nordeste 6 Nordeste 0 984.1 -- 67
2020-10-27 19:00:00 14.3 2 Oeste 9 Sudoeste 0 984 -- 65
2020-10-27 18:00:00 15.6 6 Sudoeste 16 Sudoeste 0 983.3 -- 55
2020-10-27 17:00:00 17 7 Sur 15 Sudoeste 0 983 -- 50
2020-10-27 16:00:00 16.8 8 Sudoeste 21 Sur 0 983.1 -- 42
2020-10-27 15:00:00 18.1 11 Sudoeste 25 Sudoeste 0 983.2 -- 37
2020-10-27 14:00:00 19.1 10 Sur 24 Sur 0 983.5 -- 33
2020-10-27 13:00:00 18.6 14 Sur 26 Oeste 0 984.8 -- 23
2020-10-27 12:00:00 18.7 14 Oeste 28 Oeste 0 985.2 -- 26
2020-10-27 11:00:00 15.6 10 Sudoeste 24 Oeste 0 985.2 -- 34
2020-10-27 10:00:00 14.1 15 Sudoeste 23 Sudoeste 0 986.1 -- 40
2020-10-27 09:00:00 12.9 3 Sur 13 Oeste 0 986.1 -- 44
2020-10-27 08:00:00 9.9 4 Sur 12 Sudoeste 0 985.4 -- 50
2020-10-27 07:00:00 9.4 8 Oeste 19 Sur 0 985.1 -- 51
2020-10-27 06:00:00 10.2 3 Sur 9 Sudoeste 0 985 -- 50
2020-10-27 05:00:00 9.6 2 Este 17 Oeste 0 984.8 -- 50
2020-10-27 04:00:00 10 2 Sudoeste 8 Oeste 0 984.7 -- 49
2020-10-27 03:00:00 10.4 3 Sudoeste 8 Noroeste 0 985.2 -- 47
2020-10-27 02:00:00 11.1 3 Oeste 12 Noroeste 0 985.5 -- 45
2020-10-27 01:00:00 11.5 4 Sudoeste 21 Oeste 0 985.8 -- 44
2020-10-27 00:00:00 12.4 4 Noroeste 14 Noroeste 0 985.9 -- 42
2020-10-26 23:00:00 12.6 4 Noroeste 10 Norte 0 986.2 -- 42
2020-10-26 22:00:00 12.5 0 Calma 9 Norte 0 985.7 -- 39
2020-10-26 21:00:00 13.2 2 Noroeste 12 Noroeste 0 985.5 -- 36
2020-10-26 20:00:00 14 9 Oeste 21 Noroeste 0 985.1 -- 33
2020-10-26 19:00:00 15.5 17 Noroeste 36 Noroeste 0 984 -- 30
2020-10-26 18:00:00 16.9 13 Noroeste 38 Norte 0 982.8 -- 26
2020-10-26 17:00:00 18.1 19 Noroeste 37 Noroeste 0 982.1 -- 25
2020-10-26 16:00:00 19.2 20 Noroeste 45 Oeste 0 982 -- 24
2020-10-26 15:00:00 18.6 27 Oeste 55 Oeste 0 981.2 -- 25
2020-10-26 14:00:00 18.2 29 Oeste 59 Noroeste 0 981.2 -- 27
2020-10-26 13:00:00 17.6 28 Oeste 54 Noroeste 0 981.8 -- 29
2020-10-26 12:00:00 16.9 33 Noroeste 93 Noroeste 0 982.6 -- 31
2020-10-26 11:00:00 16.8 30 Noroeste 52 Noroeste 0 982.5 -- 34
2020-10-26 10:00:00 16.1 15 Noroeste 39 Noroeste 0 982 -- 38
2020-10-26 09:00:00 14.2 15 Norte 29 Norte 0 982.3 -- 41
2020-10-26 08:00:00 14.4 7 Noroeste 45 Noroeste 0 981.2 -- 43
2020-10-26 07:00:00 15.2 22 Oeste 44 Noroeste 0 979.9 -- 41
2020-10-26 06:00:00 15.4 5 Noroeste 42 Oeste 0 979.6 -- 46
2020-10-26 05:00:00 16.5 23 Noroeste 51 Noroeste 0 978.5 -- 50
2020-10-26 04:00:00 16.6 6 Nordeste 15 Nordeste 0 977.9 -- 48
2020-10-26 03:00:00 16 2 Sur 11 Sur 0 977.2 -- 46
2020-10-26 02:00:00 16.3 5 Sur 13 Sur 0 977.5 -- 46
2020-10-26 01:00:00 17.1 8 Noroeste 17 Noroeste 0 978.2 -- 43
2020-10-26 00:00:00 15.8 3 Sudoeste 11 Noroeste 0 979.4 -- 43
2020-10-25 23:00:00 16.9 9 Oeste 31 Oeste 0 980.3 -- 38
2020-10-25 22:00:00 17.3 3 Oeste 24 Oeste 0 980.2 -- 42
2020-10-25 21:00:00 18.3 13 Oeste 27 Oeste 0 980.1 -- 37
2020-10-25 20:00:00 17.8 0 Calma 9 Oeste 0 980 -- 45
2020-10-25 19:00:00 19.2 5 Nordeste 14 Sudoeste 0 979.9 -- 40
2020-10-25 18:00:00 21.4 10 Sur 18 Sur 0 979.4 -- 30
2020-10-25 17:00:00 23.5 10 Sudoeste 19 Sudoeste 0 979.5 -- 25
2020-10-25 16:00:00 23.6 9 Sudoeste 18 Sudoeste 0 979.9 -- 24
2020-10-25 15:00:00 23.4 8 Sur 26 Sudoeste 0 979.9 -- 24
2020-10-25 14:00:00 22.3 15 Sur 28 Sudoeste 0 981.1 -- 24
2020-10-25 13:00:00 22.6 12 Sur 23 Sur 0 982.1 -- 22
2020-10-25 12:00:00 22.4 6 Sudoeste 18 Sudoeste 0 983.2 -- 22
2020-10-25 11:00:00 20.8 2 Sur 6 Sur 0 984.2 -- 29
2020-10-25 10:00:00 17.1 3 Este 6 Este 0 984.4 -- 42
2020-10-25 09:00:00 13.2 2 Este 6 Nordeste 0 985.2 -- 54
2020-10-25 08:00:00 9.3 3 Nordeste 7 Nordeste 0 984.5 -- 72
2020-10-25 07:00:00 8.5 4 Nordeste 10 Nordeste 0 984.9 -- 75
2020-10-25 06:00:00 9.3 0 Calma 6 Este 0 985.2 -- 75
2020-10-25 05:00:00 9.4 3 Este 7 Nordeste 0 985.4 -- 74
2020-10-25 04:00:00 10.5 0 Calma 3 Nordeste 0 985.7 -- 72
2020-10-25 03:00:00 11.6 0 Calma 5 Este 0 986 -- 68
2020-10-25 02:00:00 14.3 0 Calma 10 Oeste 0 986.7 -- 59
2020-10-25 01:00:00 15.2 2 Sudoeste 14 Oeste 0 988.1 -- 56
2020-10-25 00:00:00 15.2 3 Sur 10 Noroeste 0 988.2 -- 56